createdAt,value
2018-12-26T00:02:08.427Z,7.07
2018-12-26T00:05:08.112Z,34.70
2018-12-26T00:07:46.513Z,25.50
2018-12-26T00:10:38.515Z,28.17
2018-12-26T00:13:15.541Z,19.57
2018-12-26T00:15:52.185Z,18.60
2018-12-26T00:18:25.092Z,22.23
2018-12-26T00:20:57.823Z,18.43
2018-12-26T00:23:48.793Z,17.00
2018-12-26T00:26:40.170Z,22.20
2018-12-26T00:29:23.246Z,14.37
2018-12-26T00:34:47.920Z,19.93
2018-12-26T00:37:31.943Z,18.73
2018-12-26T00:40:15.074Z,18.20
2018-12-26T00:45:40.496Z,18.10
2018-12-26T00:48:23.753Z,18.10
2018-12-26T00:51:06.238Z,20.60
2018-12-26T00:56:41.694Z,17.47
2018-12-26T00:59:26.815Z,21.00
2018-12-26T01:02:09.870Z,15.93
2018-12-26T01:04:53.020Z,20.30
2018-12-26T01:07:36.674Z,23.03
2018-12-26T01:10:19.460Z,22.77
2018-12-26T01:13:03.565Z,18.73
2018-12-26T01:15:49.834Z,31.03
2018-12-26T01:18:35.749Z,32.77
2018-12-26T01:21:18.174Z,35.63
2018-12-26T01:24:01.741Z,35.83
2018-12-26T01:26:44.235Z,34.47
2018-12-26T01:29:27.893Z,28.57
2018-12-26T01:32:17.516Z,23.87
2018-12-26T01:34:59.836Z,19.23
2018-12-26T01:41:16.711Z,22.43
2018-12-26T01:43:49.173Z,19.53
2018-12-26T01:46:32.816Z,21.30
2018-12-26T01:49:17.195Z,19.30
2018-12-26T01:52:01.957Z,18.23
2018-12-26T01:54:46.381Z,18.67
2018-12-26T01:57:27.795Z,23.20
2018-12-26T02:00:10.552Z,24.63
2018-12-26T02:02:53.010Z,21.50
2018-12-26T02:05:35.485Z,28.03
2018-12-26T02:08:18.975Z,24.73
2018-12-26T02:11:03.457Z,61.20
2018-12-26T02:13:47.514Z,26.87
2018-12-26T02:16:30.536Z,36.60
2018-12-26T02:19:15.759Z,11.20
2018-12-26T02:21:58.299Z,17.67
2018-12-26T02:27:41.671Z,17.53
2018-12-26T02:30:35.512Z,15.97
2018-12-26T02:33:18.131Z,13.90
2018-12-26T02:36:02.973Z,25.27
2018-12-26T02:38:45.956Z,21.10
2018-12-26T02:41:28.352Z,17.50
2018-12-26T02:44:11.416Z,14.60
2018-12-26T02:46:53.069Z,17.10
2018-12-26T02:49:35.949Z,19.80
2018-12-26T02:52:11.921Z,14.90
2018-12-26T02:57:55.041Z,10.87
2018-12-26T03:03:25.393Z,12.87
2018-12-26T03:06:08.679Z,19.13
2018-12-26T03:08:51.439Z,24.20
2018-12-26T03:11:38.283Z,21.77
2018-12-26T03:14:39.211Z,27.07
2018-12-26T03:17:30.595Z,41.07
2018-12-26T03:20:14.746Z,25.13
2018-12-26T03:23:01.905Z,24.93
2018-12-26T03:25:48.415Z,33.53
2018-12-26T03:28:31.499Z,45.13
2018-12-26T03:31:15.990Z,48.57
2018-12-26T03:33:59.496Z,28.47
2018-12-26T03:36:44.211Z,16.67
2018-12-26T03:39:27.406Z,16.70
2018-12-26T03:42:10.303Z,20.40
2018-12-26T03:44:52.899Z,32.63
2018-12-26T03:47:35.998Z,25.90
2018-12-26T03:50:28.842Z,25.43
2018-12-26T03:53:18.775Z,17.80
2018-12-26T03:56:01.338Z,15.67
2018-12-26T03:58:45.469Z,15.83
2018-12-26T04:01:29.060Z,18.20
2018-12-26T04:04:14.582Z,14.03
2018-12-26T04:06:57.805Z,13.83
2018-12-26T04:09:40.806Z,18.40
2018-12-26T04:12:23.574Z,14.50
2018-12-26T04:17:57.861Z,13.17
2018-12-26T04:20:40.942Z,9.83
2018-12-26T04:23:23.889Z,13.97
2018-12-26T04:26:06.879Z,8.10
2018-12-26T04:28:51.506Z,10.27
2018-12-26T04:31:34.340Z,11.57
2018-12-26T04:34:16.861Z,8.40
2018-12-26T04:37:00.543Z,7.53
2018-12-26T04:39:43.309Z,8.97
2018-12-26T04:42:26.307Z,7.93
2018-12-26T04:45:08.712Z,7.87
2018-12-26T04:47:52.180Z,8.90
2018-12-26T04:50:34.764Z,8.13
2018-12-26T04:53:17.444Z,6.87
2018-12-26T04:56:00.202Z,6.00
2018-12-26T04:58:42.854Z,8.13
2018-12-26T05:01:25.635Z,5.50
2018-12-26T05:04:08.309Z,9.07
2018-12-26T05:06:51.249Z,7.43
2018-12-26T05:09:34.120Z,6.97
2018-12-26T05:12:16.835Z,8.80
2018-12-26T05:15:02.047Z,10.00
2018-12-26T05:17:54.889Z,12.30
2018-12-26T05:20:37.491Z,8.53
2018-12-26T05:23:20.503Z,5.93
2018-12-26T05:26:03.108Z,8.70
2018-12-26T05:28:45.710Z,9.93
2018-12-26T05:31:28.508Z,9.13
2018-12-26T05:34:11.158Z,9.23
2018-12-26T05:36:53.649Z,6.67
2018-12-26T05:39:35.942Z,8.47
2018-12-26T05:42:18.710Z,5.43
2018-12-26T05:45:01.471Z,9.30
2018-12-26T05:47:44.122Z,7.93
2018-12-26T05:50:26.911Z,9.50
2018-12-26T05:53:09.630Z,7.87
2018-12-26T05:55:52.873Z,9.30
2018-12-26T05:58:35.696Z,8.27
2018-12-26T06:01:18.448Z,19.13
2018-12-26T06:04:01.585Z,30.73
2018-12-26T06:06:45.606Z,28.10
2018-12-26T06:09:28.112Z,34.43
2018-12-26T06:12:11.527Z,27.40
2018-12-26T06:14:54.591Z,32.67
2018-12-26T06:17:37.390Z,48.83
2018-12-26T06:20:19.966Z,42.40
2018-12-26T06:23:02.817Z,47.50
2018-12-26T06:25:45.719Z,32.90
2018-12-26T06:28:28.010Z,29.40
2018-12-26T06:31:10.818Z,25.37
2018-12-26T06:33:53.233Z,27.17
2018-12-26T06:36:35.897Z,32.17
2018-12-26T06:39:18.611Z,35.73
2018-12-26T06:42:01.645Z,26.10
2018-12-26T06:44:44.171Z,24.83
2018-12-26T06:47:27.180Z,29.40
2018-12-26T06:50:09.962Z,24.60
2018-12-26T06:52:52.232Z,29.70
2018-12-26T06:55:34.964Z,30.37
2018-12-26T06:58:17.774Z,29.03
2018-12-26T07:01:00.388Z,27.33
2018-12-26T07:03:43.029Z,23.07
2018-12-26T07:06:25.815Z,27.60
2018-12-26T07:09:08.581Z,18.90
2018-12-26T07:11:52.609Z,19.37
2018-12-26T07:14:35.491Z,17.13
2018-12-26T07:17:18.141Z,20.60
2018-12-26T07:20:01.055Z,13.10
2018-12-26T07:22:44.060Z,19.13
2018-12-26T07:25:26.643Z,10.07
2018-12-26T07:28:09.554Z,18.53
2018-12-26T07:30:52.403Z,14.70
2018-12-26T07:33:35.260Z,9.00
2018-12-26T07:36:17.868Z,9.93
2018-12-26T07:39:01.054Z,8.60
2018-12-26T07:41:43.660Z,8.07
2018-12-26T07:44:26.233Z,10.23
2018-12-26T07:47:09.001Z,7.80
2018-12-26T07:49:51.697Z,8.93
2018-12-26T07:52:34.427Z,9.83
2018-12-26T07:55:17.148Z,7.33
2018-12-26T07:57:59.829Z,8.83
2018-12-26T08:00:42.429Z,11.07
2018-12-26T08:03:24.979Z,7.33
2018-12-26T08:06:07.674Z,8.67
2018-12-26T08:08:50.497Z,13.40
2018-12-26T08:11:33.674Z,12.17
2018-12-26T08:14:16.461Z,15.47
2018-12-26T08:16:59.703Z,9.43
2018-12-26T08:19:42.259Z,10.50
2018-12-26T08:22:24.629Z,8.60
2018-12-26T08:25:07.169Z,8.80
2018-12-26T08:27:50.266Z,9.50
2018-12-26T08:30:32.779Z,11.97
2018-12-26T08:33:15.448Z,13.63
2018-12-26T08:35:58.411Z,8.67
2018-12-26T08:38:41.075Z,8.20
2018-12-26T08:41:23.863Z,5.93
2018-12-26T08:44:06.431Z,4.67
2018-12-26T08:46:48.962Z,8.53
2018-12-26T08:49:31.859Z,6.20
2018-12-26T08:52:14.420Z,4.40
2018-12-26T08:54:57.089Z,5.97
2018-12-26T08:57:39.737Z,8.60
2018-12-26T09:00:22.562Z,7.27
2018-12-26T09:03:04.938Z,8.80
2018-12-26T09:05:47.529Z,9.43
2018-12-26T09:08:30.352Z,9.20
2018-12-26T09:11:13.069Z,8.13
2018-12-26T09:13:55.866Z,7.43
2018-12-26T09:16:38.698Z,7.33
2018-12-26T09:19:21.773Z,7.63
2018-12-26T09:22:04.221Z,7.83
2018-12-26T09:24:46.491Z,5.97
2018-12-26T09:27:28.997Z,7.90
2018-12-26T09:30:11.837Z,8.77
2018-12-26T09:32:54.426Z,10.00
2018-12-26T09:35:38.022Z,7.23
2018-12-26T09:38:21.085Z,9.63
2018-12-26T09:41:03.945Z,6.83
2018-12-26T09:43:46.892Z,11.27
2018-12-26T09:46:29.779Z,14.40
2018-12-26T09:49:12.195Z,16.33
2018-12-26T09:51:54.947Z,16.43
2018-12-26T09:54:38.051Z,10.00
2018-12-26T09:57:20.414Z,10.27
2018-12-26T10:00:03.203Z,11.80
2018-12-26T10:02:45.796Z,16.77
2018-12-26T10:05:28.575Z,14.57
2018-12-26T10:08:11.445Z,21.77
2018-12-26T10:10:53.991Z,18.67
2018-12-26T10:13:36.728Z,17.63
2018-12-26T10:16:19.347Z,19.07
2018-12-26T10:19:01.937Z,16.67
2018-12-26T10:21:44.567Z,17.23
2018-12-26T10:24:27.220Z,17.83
2018-12-26T10:27:09.922Z,21.23
2018-12-26T10:29:52.515Z,23.17
2018-12-26T10:32:35.295Z,17.07
2018-12-26T10:35:18.276Z,20.67
2018-12-26T10:38:01.048Z,12.33
2018-12-26T10:40:43.857Z,12.03
2018-12-26T10:43:26.380Z,15.63
2018-12-26T10:46:09.483Z,11.03
2018-12-26T10:48:52.088Z,9.67
2018-12-26T10:51:35.287Z,14.23
2018-12-26T10:54:18.227Z,10.10
2018-12-26T10:57:00.922Z,9.63
2018-12-26T10:59:43.376Z,11.13
2018-12-26T11:02:26.021Z,8.73
2018-12-26T11:05:08.580Z,11.27
2018-12-26T11:07:41.731Z,10.43
2018-12-26T11:10:34.133Z,11.30
2018-12-26T11:13:25.118Z,8.73
2018-12-26T11:16:07.677Z,13.53
2018-12-26T11:18:58.998Z,13.80
2018-12-26T11:21:44.615Z,15.07
2018-12-26T11:24:28.317Z,12.50
2018-12-26T11:27:11.289Z,15.17
2018-12-26T11:29:53.398Z,12.27
2018-12-26T11:32:43.071Z,9.70
2018-12-26T11:35:25.756Z,6.73
2018-12-26T11:38:08.370Z,13.67
2018-12-26T11:40:51.077Z,7.07
2018-12-26T11:43:34.201Z,10.23
2018-12-26T11:46:17.031Z,9.03
2018-12-26T11:49:00.335Z,9.47
2018-12-26T11:51:43.018Z,6.37
2018-12-26T11:54:25.781Z,7.53
2018-12-26T11:57:08.331Z,7.20
2018-12-26T11:59:50.305Z,7.50
2018-12-26T12:05:13.267Z,7.23
2018-12-26T12:07:56.228Z,7.17
2018-12-26T12:10:38.951Z,14.27
2018-12-26T12:13:21.877Z,7.30
2018-12-26T12:16:04.446Z,6.67
2018-12-26T12:18:46.830Z,11.07
2018-12-26T12:21:29.525Z,11.27
2018-12-26T12:24:12.463Z,8.50
2018-12-26T12:26:56.341Z,8.47
2018-12-26T12:29:40.308Z,14.60
2018-12-26T12:32:24.203Z,5.43
2018-12-26T12:37:48.532Z,8.03
2018-12-26T12:43:13.287Z,7.17
2018-12-26T12:45:57.286Z,13.57
2018-12-26T12:48:43.067Z,9.07
2018-12-26T12:51:27.053Z,9.50
2018-12-26T12:54:10.245Z,11.17
2018-12-26T12:56:53.899Z,11.97
2018-12-26T12:59:44.755Z,13.77
2018-12-26T13:02:21.467Z,7.80
2018-12-26T13:05:04.637Z,9.37
2018-12-26T13:07:47.501Z,9.00
2018-12-26T13:10:30.080Z,8.40
2018-12-26T13:21:52.301Z,11.20
2018-12-26T13:24:34.706Z,8.87
2018-12-26T13:27:17.664Z,9.73
2018-12-26T13:30:01.085Z,11.87
2018-12-26T13:32:44.230Z,11.33
2018-12-26T13:35:29.935Z,13.93
2018-12-26T13:38:23.353Z,9.87
2018-12-26T13:41:06.059Z,12.13
2018-12-26T13:43:48.847Z,9.70
2018-12-26T13:46:33.859Z,10.73
2018-12-26T13:49:16.826Z,8.57
2018-12-26T13:51:59.478Z,14.43
2018-12-26T13:54:43.146Z,10.40
2018-12-26T13:57:25.791Z,7.70
2018-12-26T14:00:08.585Z,5.83
2018-12-26T14:02:52.412Z,7.37
2018-12-26T14:05:36.147Z,10.07
2018-12-26T14:08:20.613Z,11.70
2018-12-26T14:11:03.307Z,6.90
2018-12-26T14:13:46.414Z,7.33
2018-12-26T14:16:29.950Z,7.13
2018-12-26T14:19:16.482Z,4.57
2018-12-26T14:22:00.855Z,4.77
2018-12-26T14:24:43.909Z,7.60
2018-12-26T14:27:29.480Z,12.50
2018-12-26T14:32:56.715Z,4.13
2018-12-26T14:35:40.054Z,8.23
2018-12-26T14:38:22.907Z,12.03
2018-12-26T14:41:07.910Z,6.77
2018-12-26T14:43:51.577Z,8.47
2018-12-26T14:46:35.699Z,5.53
2018-12-26T14:49:18.151Z,5.67
2018-12-26T14:52:05.667Z,8.63
2018-12-26T14:54:49.202Z,3.30
2018-12-26T14:57:32.195Z,7.10
2018-12-26T15:00:19.864Z,6.03
2018-12-26T15:03:09.141Z,2.73
2018-12-26T15:05:52.225Z,8.87
2018-12-26T15:11:17.874Z,13.10
2018-12-26T15:20:35.049Z,5.53
2018-12-26T15:22:33.226Z,6.20
2018-12-26T15:28:18.075Z,5.37
2018-12-26T15:31:00.930Z,4.30
2018-12-26T15:33:43.973Z,5.43
2018-12-26T15:39:06.406Z,5.30
2018-12-26T15:41:49.423Z,1.43
2018-12-26T15:44:34.484Z,4.07
2018-12-26T15:47:17.619Z,4.93
2018-12-26T15:50:02.032Z,4.80
2018-12-26T15:52:45.823Z,4.07
2018-12-26T15:55:29.157Z,4.40
2018-12-26T15:58:14.179Z,5.37
2018-12-26T16:00:57.373Z,4.73
2018-12-26T16:03:41.945Z,5.23
2018-12-26T16:06:24.898Z,5.10
2018-12-26T16:09:08.438Z,6.77
2018-12-26T16:11:51.835Z,3.87
2018-12-26T16:14:35.737Z,5.20
2018-12-26T16:17:18.963Z,7.73
2018-12-26T16:20:02.474Z,3.80
2018-12-26T16:22:45.325Z,3.17
2018-12-26T16:25:29.390Z,6.30
2018-12-26T16:28:14.377Z,7.87
2018-12-26T16:30:58.327Z,5.03
2018-12-26T16:33:42.990Z,5.57
2018-12-26T16:36:27.875Z,3.47
2018-12-26T16:39:10.984Z,9.43
2018-12-26T16:41:55.393Z,6.60
2018-12-26T16:44:38.899Z,7.93
2018-12-26T16:47:22.590Z,9.23
2018-12-26T16:50:05.665Z,3.70
2018-12-26T16:52:48.459Z,4.53
2018-12-26T16:55:32.019Z,4.07
2018-12-26T16:58:20.023Z,7.60
2018-12-26T17:01:03.370Z,5.60
2018-12-26T17:03:47.884Z,2.83
2018-12-26T17:09:21.597Z,6.07
2018-12-26T17:12:05.554Z,5.37
2018-12-26T17:14:48.742Z,3.73
2018-12-26T17:17:32.194Z,13.57
2018-12-26T17:23:36.977Z,3.12
2018-12-26T17:25:54.125Z,12.20
2018-12-26T17:28:37.282Z,13.50
2018-12-26T17:31:21.823Z,9.43
2018-12-26T17:34:04.849Z,5.87
2018-12-26T17:36:49.086Z,3.08
2018-12-26T17:39:32.602Z,2.70
2018-12-26T17:42:16.455Z,3.00
2018-12-26T17:45:00.090Z,3.98
2018-12-26T17:47:43.630Z,4.60
2018-12-26T17:50:35.754Z,5.17
2018-12-26T17:53:23.446Z,6.50
2018-12-26T17:56:23.400Z,9.18
2018-12-26T17:59:09.390Z,4.83
2018-12-26T18:01:53.424Z,6.25
2018-12-26T18:08:00.248Z,7.78
2018-12-26T18:10:33.359Z,5.43
2018-12-26T18:13:25.022Z,6.33
2018-12-26T18:18:42.110Z,8.40
2018-12-26T18:27:37.834Z,5.40
2018-12-26T18:33:40.841Z,5.85
2018-12-26T18:36:23.277Z,5.77
2018-12-26T18:39:06.081Z,5.23
2018-12-26T18:41:48.751Z,2.87
2018-12-26T18:44:32.121Z,2.87
2018-12-26T18:47:15.142Z,7.72
2018-12-26T18:49:58.059Z,2.92
2018-12-26T18:52:41.602Z,4.85
2018-12-26T18:55:24.244Z,4.25
2018-12-26T19:01:07.806Z,7.43
2018-12-26T19:03:50.845Z,2.87
2018-12-26T19:06:33.426Z,3.80
2018-12-26T19:09:16.275Z,5.08
2018-12-26T19:11:58.764Z,5.63
2018-12-26T19:14:41.732Z,4.85
2018-12-26T19:17:24.963Z,4.35
2018-12-26T19:20:07.795Z,6.20
2018-12-26T19:22:51.002Z,5.12
2018-12-26T19:25:34.257Z,2.40
2018-12-26T19:28:17.235Z,4.42
2018-12-26T19:34:18.315Z,7.25
2018-12-26T19:39:33.457Z,4.37
2018-12-26T19:42:06.418Z,4.45
2018-12-26T19:44:57.696Z,8.73
2018-12-26T19:47:49.101Z,9.98
2018-12-26T19:50:31.656Z,7.58
2018-12-26T19:56:24.936Z,4.85
2018-12-26T19:59:08.830Z,5.10
2018-12-26T20:01:52.344Z,4.62
2018-12-26T20:04:35.441Z,3.63
2018-12-26T20:07:18.910Z,2.92
2018-12-26T20:10:01.717Z,7.10
2018-12-26T20:12:45.293Z,14.50
2018-12-26T20:15:28.646Z,8.70
2018-12-26T20:18:12.950Z,5.47
2018-12-26T20:20:56.403Z,2.90
2018-12-26T20:23:39.774Z,4.58
2018-12-26T20:26:22.903Z,7.10
2018-12-26T20:29:05.642Z,4.95
2018-12-26T20:31:56.684Z,7.92
2018-12-26T20:34:34.134Z,5.47
2018-12-26T20:37:17.824Z,6.50
2018-12-26T20:40:00.973Z,8.73
2018-12-26T20:43:04.658Z,14.18
2018-12-26T20:45:47.874Z,4.23
2018-12-26T20:48:30.954Z,4.92
2018-12-26T20:51:15.234Z,3.50
2018-12-26T20:53:59.272Z,4.33
2018-12-26T20:56:45.005Z,6.45
2018-12-26T21:02:11.863Z,5.42
2018-12-26T21:07:36.710Z,3.92
2018-12-26T21:10:24.145Z,9.60
2018-12-26T21:13:08.096Z,6.30
2018-12-26T21:15:56.424Z,4.08
2018-12-26T21:18:43.280Z,4.40
2018-12-26T21:21:26.396Z,4.97
2018-12-26T21:24:13.886Z,12.15
2018-12-26T21:26:58.107Z,2.77
2018-12-26T21:29:41.632Z,6.37
2018-12-26T21:32:26.462Z,3.35
2018-12-26T21:35:12.078Z,4.10
2018-12-26T21:37:55.571Z,4.72
2018-12-26T21:40:39.666Z,7.12
2018-12-26T21:43:32.641Z,23.80
2018-12-26T21:46:15.900Z,6.05
2018-12-26T21:48:59.938Z,6.28
2018-12-26T21:51:43.238Z,6.45
2018-12-26T21:54:27.066Z,3.10
2018-12-26T21:57:09.898Z,2.65
2018-12-26T21:59:55.858Z,4.42
2018-12-26T22:06:20.205Z,4.33
2018-12-26T22:12:06.858Z,5.47
2018-12-26T22:14:49.679Z,11.33
2018-12-26T22:17:35.079Z,5.28
2018-12-26T22:20:17.805Z,3.63
2018-12-26T22:23:01.908Z,6.40
2018-12-26T22:25:44.384Z,4.20
2018-12-26T22:28:28.053Z,4.13
2018-12-26T22:31:11.593Z,5.62
2018-12-26T22:33:57.328Z,21.10
2018-12-26T22:36:40.149Z,49.87
2018-12-26T22:39:23.267Z,9.63
2018-12-26T22:42:06.995Z,11.50
2018-12-26T22:44:49.467Z,5.27
2018-12-26T22:50:49.049Z,5.03
2018-12-26T22:53:33.137Z,9.17
2018-12-26T22:56:15.757Z,10.90
2018-12-26T22:58:58.530Z,6.62
2018-12-26T23:01:42.946Z,4.33
2018-12-26T23:04:27.012Z,6.47
2018-12-26T23:07:13.066Z,4.60
2018-12-26T23:09:56.943Z,5.23
2018-12-26T23:12:39.540Z,6.00
2018-12-26T23:15:22.845Z,8.17
2018-12-26T23:18:02.045Z,7.37
2018-12-26T23:23:38.689Z,8.60
2018-12-26T23:26:21.913Z,6.63
2018-12-26T23:29:04.072Z,4.27
2018-12-26T23:31:48.582Z,6.40
2018-12-26T23:34:31.965Z,7.23
2018-12-26T23:37:15.828Z,5.10
2018-12-26T23:40:00.576Z,5.97
2018-12-26T23:42:43.802Z,4.77
2018-12-26T23:45:44.876Z,5.83
2018-12-26T23:48:15.529Z,8.63
2018-12-26T23:50:58.661Z,6.53
2018-12-26T23:53:42.334Z,13.33
2018-12-26T23:56:26.769Z,6.03
